Time;durP1;ratioP1;P1;durP2;ratioP2;P2;SDS_P1;SDS_P2;PMS_P1;PMS_P2;Temp;Humidity;BMP_temperature;BMP_pressure;BME280_temperature;BME280_humidity;BME280_pressure;Samples;Min_cycle;Max_cycle;Signal;HPM_P1;HPM_P2
2022/06/21 00:00:36;;;;;;;0.20;0.10;;;;;;;;;;4974026;28;20351;-89
2022/06/21 00:03:04;;;;;;;0.20;0.10;;;;;;;;;;4973119;28;20073;-88
2022/06/21 00:05:34;;;;;;;0.20;0.10;;;;;;;;;;4973724;28;20052;-89
2022/06/21 00:08:02;;;;;;;0.40;0.40;;;;;;;;;;4974311;28;20089;-89
2022/06/21 00:10:28;;;;;;;0.20;0.00;;;;;;;;;;4973574;28;20503;-89
2022/06/21 00:12:54;;;;;;;0.20;0.10;;;;;;;;;;4959277;28;20041;-88
2022/06/21 00:15:20;;;;;;;0.20;0.10;;;;;;;;;;4971826;28;20082;-88
2022/06/21 00:17:48;;;;;;;0.20;0.08;;;;;;;;;;4957743;28;20092;-88
2022/06/21 00:20:18;;;;;;;0.20;0.10;;;;;;;;;;4972960;28;20424;-88
2022/06/21 00:22:45;;;;;;;0.20;0.10;;;;;;;;;;4972143;28;20096;-87
2022/06/21 00:25:23;;;;;;;0.20;0.10;;;;;;;;;;4972832;28;20074;-88
2022/06/21 00:27:49;;;;;;;0.20;0.10;;;;;;;;;;4973229;28;20217;-89
2022/06/21 00:30:16;;;;;;;0.20;0.10;;;;;;;;;;4973397;28;20042;-89
2022/06/21 00:32:43;;;;;;;0.20;0.03;;;;;;;;;;4960820;28;20069;-89
2022/06/21 00:35:16;;;;;;;0.20;0.10;;;;;;;;;;4956873;28;20172;-89
2022/06/21 00:37:42;;;;;;;0.20;0.10;;;;;;;;;;4973619;28;20042;-89
2022/06/21 00:40:14;;;;;;;0.20;0.10;;;;;;;;;;4972352;28;20734;-88
2022/06/21 00:42:41;;;;;;;0.20;0.10;;;;;;;;;;4972452;28;20515;-89
2022/06/21 00:45:11;;;;;;;0.20;0.10;;;;;;;;;;4972301;28;20046;-89
2022/06/21 00:47:48;;;;;;;0.20;0.10;;;;;;;;;;4973088;28;20394;-89
2022/06/21 00:50:20;;;;;;;0.20;0.10;;;;;;;;;;4972790;28;20410;-89
2022/06/21 00:52:53;;;;;;;0.20;0.10;;;;;;;;;;4972843;28;20053;-89
2022/06/21 00:55:26;;;;;;;0.20;0.10;;;;;;;;;;4972150;28;20050;-89
2022/06/21 00:57:54;;;;;;;0.20;0.10;;;;;;;;;;4961758;28;20562;-89
2022/06/21 01:00:29;;;;;;;0.20;0.10;;;;;;;;;;4953321;28;20046;-89
2022/06/21 01:02:57;;;;;;;0.20;0.00;;;;;;;;;;4954833;28;20039;-89
2022/06/21 01:05:23;;;;;;;0.20;0.10;;;;;;;;;;4973099;28;20042;-89
2022/06/21 01:07:52;;;;;;;0.20;0.10;;;;;;;;;;4974758;28;20058;-89
2022/06/21 01:10:18;;;;;;;0.20;0.10;;;;;;;;;;4972410;28;20108;-89
2022/06/21 01:12:47;;;;;;;0.20;0.10;;;;;;;;;;4971581;28;20038;-90
2022/06/21 01:15:17;;;;;;;0.20;0.10;;;;;;;;;;4971729;28;20092;-90
2022/06/21 01:17:44;;;;;;;0.30;0.20;;;;;;;;;;4971599;28;20053;-89
2022/06/21 01:20:13;;;;;;;0.20;0.10;;;;;;;;;;4971832;28;20057;-89
2022/06/21 01:22:39;;;;;;;0.20;0.10;;;;;;;;;;4972065;28;20047;-89
2022/06/21 01:25:18;;;;;;;0.20;0.10;;;;;;;;;;4971447;28;20129;-89
2022/06/21 01:27:44;;;;;;;0.20;0.10;;;;;;;;;;4971006;28;20114;-89
2022/06/21 01:30:11;;;;;;;0.20;0.10;;;;;;;;;;4958238;28;20046;-89
2022/06/21 01:32:37;;;;;;;0.20;0.10;;;;;;;;;;4971756;28;20049;-89
2022/06/21 01:35:11;;;;;;;0.20;0.10;;;;;;;;;;4978931;28;20260;-89
2022/06/21 01:37:38;;;;;;;0.20;0.10;;;;;;;;;;4955475;28;20268;-89
2022/06/21 01:40:04;;;;;;;0.20;0.10;;;;;;;;;;4955876;28;20253;-89
2022/06/21 01:42:49;;;;;;;0.20;0.10;;;;;;;;;;4958115;28;20053;-89
2022/06/21 01:45:19;;;;;;;0.20;0.10;;;;;;;;;;4955746;28;20049;-89
2022/06/21 01:47:57;;;;;;;0.20;0.00;;;;;;;;;;4955357;28;20038;-89
2022/06/21 01:50:23;;;;;;;0.20;0.10;;;;;;;;;;4955874;28;20042;-88
2022/06/21 01:52:51;;;;;;;0.20;0.10;;;;;;;;;;4955320;28;20049;-89
2022/06/21 01:55:22;;;;;;;0.20;0.10;;;;;;;;;;4955021;28;20078;-89
2022/06/21 01:57:49;;;;;;;0.20;0.10;;;;;;;;;;4955604;28;20046;-89
2022/06/21 02:00:16;;;;;;;0.20;0.10;;;;;;;;;;4958492;28;20146;-88
2022/06/21 02:02:43;;;;;;;0.20;0.10;;;;;;;;;;4971953;28;20103;-89
2022/06/21 02:05:17;;;;;;;0.20;0.10;;;;;;;;;;4971722;28;20251;-89
2022/06/21 02:07:45;;;;;;;0.20;0.10;;;;;;;;;;4972069;28;20430;-89
2022/06/21 02:10:12;;;;;;;0.20;0.10;;;;;;;;;;4971404;28;20077;-89
2022/06/21 02:12:54;;;;;;;0.20;0.10;;;;;;;;;;4971674;28;20049;-89
2022/06/21 02:15:23;;;;;;;0.20;0.10;;;;;;;;;;4973741;28;20050;-89
2022/06/21 02:17:50;;;;;;;0.20;0.10;;;;;;;;;;4972208;28;20043;-89
2022/06/21 02:20:21;;;;;;;0.20;0.10;;;;;;;;;;4971404;28;20447;-88
2022/06/21 02:22:48;;;;;;;0.20;0.10;;;;;;;;;;4971348;28;20046;-89
2022/06/21 02:25:19;;;;;;;0.20;0.13;;;;;;;;;;4971997;28;20085;-89
2022/06/21 02:27:45;;;;;;;0.20;0.10;;;;;;;;;;4974945;28;20038;-89
2022/06/21 02:30:20;;;;;;;0.20;0.10;;;;;;;;;;4976076;28;20082;-88
2022/06/21 02:32:46;;;;;;;0.20;0.00;;;;;;;;;;4975194;28;20120;-88
2022/06/21 02:35:21;;;;;;;0.20;0.10;;;;;;;;;;4975190;28;20105;-88
2022/06/21 02:37:49;;;;;;;0.20;0.10;;;;;;;;;;4975108;28;20735;-88
2022/06/21 02:40:20;;;;;;;0.20;0.00;;;;;;;;;;4974777;28;20042;-89
2022/06/21 02:42:47;;;;;;;0.20;0.10;;;;;;;;;;4973897;28;20046;-89
2022/06/21 02:45:20;;;;;;;0.20;0.10;;;;;;;;;;4974458;28;20418;-89
2022/06/21 02:47:49;;;;;;;0.20;0.10;;;;;;;;;;4974134;28;20038;-88
2022/06/21 02:50:15;;;;;;;0.20;0.10;;;;;;;;;;4974536;28;20454;-89
2022/06/21 02:52:42;;;;;;;0.20;0.10;;;;;;;;;;4973859;28;20038;-89
2022/06/21 02:55:14;;;;;;;0.20;0.10;;;;;;;;;;4973925;28;20046;-89
2022/06/21 02:57:43;;;;;;;0.20;0.10;;;;;;;;;;4974509;28;20046;-90
2022/06/21 03:00:10;;;;;;;0.20;0.10;;;;;;;;;;4963936;28;20057;-89
2022/06/21 03:02:36;;;;;;;0.20;0.10;;;;;;;;;;4957743;28;20064;-89
2022/06/21 03:05:07;;;;;;;0.20;0.10;;;;;;;;;;4973759;28;20053;-89
2022/06/21 03:07:37;;;;;;;0.20;0.10;;;;;;;;;;4957733;28;20507;-89
2022/06/21 03:10:04;;;;;;;0.20;0.10;;;;;;;;;;4958239;28;20089;-89
2022/06/21 03:12:32;;;;;;;0.20;0.10;;;;;;;;;;4957789;28;20047;-89
2022/06/21 03:15:00;;;;;;;0.20;0.10;;;;;;;;;;4957286;28;20042;-89
2022/06/21 03:17:36;;;;;;;0.20;0.10;;;;;;;;;;4959001;28;20094;-89
2022/06/21 03:20:02;;;;;;;0.20;0.10;;;;;;;;;;4958539;28;20042;-89
2022/06/21 03:22:31;;;;;;;0.20;0.10;;;;;;;;;;4958096;28;20057;-89
2022/06/21 03:24:59;;;;;;;0.20;0.10;;;;;;;;;;4959360;28;20042;-88
2022/06/21 03:27:35;;;;;;;0.20;0.10;;;;;;;;;;4959308;28;20050;-88
2022/06/21 03:30:02;;;;;;;0.20;0.10;;;;;;;;;;4959112;28;20042;-89
2022/06/21 03:32:30;;;;;;;0.20;0.10;;;;;;;;;;4958563;28;20514;-89
2022/06/21 03:34:57;;;;;;;0.20;0.10;;;;;;;;;;4974472;28;20042;-89
2022/06/21 03:37:23;;;;;;;0.20;0.10;;;;;;;;;;4959383;28;20042;-89
2022/06/21 03:42:38;;;;;;;0.20;0.10;;;;;;;;;;4975060;28;20054;-88
2022/06/21 03:45:06;;;;;;;0.20;0.10;;;;;;;;;;4958424;28;20050;-89
2022/06/21 03:47:39;;;;;;;0.20;0.10;;;;;;;;;;4959288;28;20034;-88
2022/06/21 03:50:07;;;;;;;0.20;0.10;;;;;;;;;;4958369;28;20042;-88
2022/06/21 03:52:42;;;;;;;0.20;0.10;;;;;;;;;;4957912;28;20121;-88
2022/06/21 03:55:12;;;;;;;0.20;0.10;;;;;;;;;;4956507;28;20050;-88
2022/06/21 03:57:39;;;;;;;0.20;0.10;;;;;;;;;;4957676;28;20046;-88
2022/06/21 04:00:08;;;;;;;0.20;0.10;;;;;;;;;;4959024;28;20125;-88
2022/06/21 04:02:45;;;;;;;0.20;0.10;;;;;;;;;;4959510;28;20089;-89
2022/06/21 04:05:25;;;;;;;0.20;0.10;;;;;;;;;;4958139;28;20039;-89
2022/06/21 04:07:58;;;;;;;0.20;0.10;;;;;;;;;;4958999;28;20050;-89
2022/06/21 04:10:27;;;;;;;0.20;0.10;;;;;;;;;;4958025;28;20078;-89
2022/06/21 04:12:57;;;;;;;0.20;0.10;;;;;;;;;;4958024;28;20108;-88
2022/06/21 04:15:26;;;;;;;0.20;0.10;;;;;;;;;;4956640;28;20112;-89
2022/06/21 04:18:02;;;;;;;0.20;0.10;;;;;;;;;;4957411;28;20129;-89
2022/06/21 04:20:40;;;;;;;0.20;0.10;;;;;;;;;;4958933;28;20042;-88
2022/06/21 04:23:13;;;;;;;0.20;0.10;;;;;;;;;;4957864;28;20046;-89
2022/06/21 04:25:50;;;;;;;0.20;0.10;;;;;;;;;;4957573;28;20038;-89
2022/06/21 04:28:16;;;;;;;0.20;0.10;;;;;;;;;;4958359;28;20034;-88
2022/06/21 04:30:54;;;;;;;0.20;0.10;;;;;;;;;;4957806;28;20092;-89
2022/06/21 04:33:25;;;;;;;0.20;0.10;;;;;;;;;;4958668;28;20047;-88
2022/06/21 04:35:56;;;;;;;0.20;0.10;;;;;;;;;;4961225;28;20048;-89
2022/06/21 04:38:26;;;;;;;0.20;0.03;;;;;;;;;;4957800;28;20038;-89
2022/06/21 04:40:58;;;;;;;0.30;0.30;;;;;;;;;;4958692;28;20126;-89
2022/06/21 04:43:42;;;;;;;0.20;0.10;;;;;;;;;;4957642;28;20525;-88
2022/06/21 04:46:18;;;;;;;0.20;0.00;;;;;;;;;;4958009;28;20085;-88
2022/06/21 04:48:45;;;;;;;0.20;0.10;;;;;;;;;;4957090;28;20038;-88
2022/06/21 04:51:24;;;;;;;0.20;0.10;;;;;;;;;;4956226;28;20042;-88
2022/06/21 04:53:52;;;;;;;0.20;0.00;;;;;;;;;;4957123;28;20038;-88
2022/06/21 04:56:27;;;;;;;0.20;0.10;;;11.70;99.90;;;;;;4956882;28;20042;-88
2022/06/21 04:58:54;;;;;;;0.20;0.10;;;9.90;99.90;;;;;;4956311;28;20074;-87
2022/06/21 05:01:29;;;;;;;0.20;0.10;;;9.90;99.90;;;;;;4987780;28;20136;-88
2022/06/21 05:03:58;;;;;;;0.20;0.10;;;;;;;;;;4972801;28;20085;-88
2022/06/21 05:06:25;;;;;;;0.20;0.05;;;;;;;;;;4956902;28;20518;-88
2022/06/21 05:08:52;;;;;;;0.20;0.10;;;;;;;;;;4955595;28;20124;-88
2022/06/21 05:11:18;;;;;;;0.20;0.10;;;;;;;;;;4974061;28;20519;-88
2022/06/21 05:13:50;;;;;;;0.20;0.10;;;;;;;;;;4954638;28;20042;-89
2022/06/21 05:16:21;;;;;;;0.20;0.10;;;;;;;;;;4956353;28;20065;-88
2022/06/21 05:18:55;;;;;;;0.20;0.10;;;;;;;;;;4955408;28;20119;-89
2022/06/21 05:21:34;;;;;;;0.20;0.10;;;;;;;;;;4973059;28;20138;-90
2022/06/21 05:24:09;;;;;;;0.20;0.10;;;;;;;;;;4957601;28;20090;-91
2022/06/21 05:27:03;;;;;;;0.20;0.10;;;;;;;;;;4971193;28;20054;-91
2022/06/21 05:30:06;;;;;;;0.20;0.10;;;;;;;;;;4978716;28;20042;-91
2022/06/21 05:32:55;;;;;;;0.20;0.10;;;;;;;;;;4957751;28;20084;-89
2022/06/21 05:38:35;;;;;;;0.20;0.10;;;;;;;;;;4988194;28;20050;-90
2022/06/21 05:41:11;;;;;;;;;;;10.00;99.90;;;;;;4957490;28;20035;-91
2022/06/21 05:43:45;;;;;;;0.20;0.00;;;;;;;;;;4975856;28;19917;-91
2022/06/21 06:59:25;;;;;;;0.20;0.00;;;;;;;;;;4973370;28;20508;-87
2022/06/21 07:02:02;;;;;;;0.20;0.10;;;;;;;;;;4941028;28;20089;-88
2022/06/21 07:04:31;;;;;;;0.38;0.13;;;;;;;;;;4956793;28;20542;-91
2022/06/21 07:07:01;;;;;;;0.30;0.30;;;;;;;;;;4953455;28;20042;-91
2022/06/21 07:09:34;;;;;;;0.20;0.10;;;;;;;;;;4954453;28;20263;-91
2022/06/21 07:12:14;;;;;;;0.20;0.08;;;;;;;;;;4958310;28;20078;-92
2022/06/21 07:14:40;;;;;;;0.20;0.10;;;;;;;;;;4953729;28;20057;-92
2022/06/21 07:17:19;;;;;;;0.20;0.10;;;;;;;;;;4957664;28;20039;-92
2022/06/21 07:19:45;;;;;;;0.20;0.08;;;;;;;;;;4957019;28;20488;-90
2022/06/21 07:22:22;;;;;;;0.20;0.10;;;;;;;;;;4952214;28;20049;-91
2022/06/21 07:24:52;;;;;;;0.20;0.10;;;;;;;;;;4963255;28;20404;-91
2022/06/21 07:27:19;;;;;;;0.20;0.10;;;;;;;;;;4950531;28;20475;-90
2022/06/21 07:29:51;;;;;;;0.20;0.10;;;;;;;;;;4952281;28;20702;-91
2022/06/21 07:32:17;;;;;;;;;;;;;;;;;;4956199;28;20046;-92
2022/06/21 07:34:43;;;;;;;0.20;0.10;;;;;;;;;;4956611;28;19926;-92
2022/06/21 07:37:13;;;;;;;0.20;0.10;;;;;;;;;;4946503;28;20075;-92
2022/06/21 07:39:39;;;;;;;0.20;0.10;;;;;;;;;;4954416;28;20113;-91
2022/06/21 07:42:08;;;;;;;0.20;0.10;;;;;;;;;;4943738;28;20034;-91
2022/06/21 07:44:39;;;;;;;0.20;0.10;;;;;;;;;;4956280;28;20046;-91
2022/06/21 07:47:17;;;;;;;0.20;0.10;;;;;;;;;;4952415;28;20038;-91
2022/06/21 07:49:48;;;;;;;0.20;0.10;;;;;;;;;;4955172;28;20078;-93
2022/06/21 07:52:24;;;;;;;0.20;0.10;;;;;;;;;;4954440;28;20575;-93
2022/06/21 07:54:53;;;;;;;0.20;0.10;;;;;;;;;;4962013;28;20113;-93
2022/06/21 07:57:29;;;;;;;0.20;0.10;;;;;;;;;;4952403;28;20050;-90
2022/06/21 08:00:01;;;;;;;0.20;0.10;;;;;;;;;;4946128;28;20039;-92
2022/06/21 08:08:02;;;;;;;0.20;0.10;;;;;;;;;;4947375;28;20047;-92
2022/06/21 08:10:31;;;;;;;0.20;0.10;;;;;;;;;;4954185;28;20043;-90
2022/06/21 08:13:01;;;;;;;0.20;0.10;;;;;;;;;;4968360;28;20038;-88
2022/06/21 08:15:31;;;;;;;0.20;0.10;;;;;;;;;;4942566;28;20027;-91
2022/06/21 08:18:06;;;;;;;0.20;0.10;;;;;;;;;;4962567;28;20103;-92
2022/06/21 08:20:46;;;;;;;0.20;0.20;;;;;;;;;;4961059;28;20058;-93
2022/06/21 08:23:42;;;;;;;0.20;0.10;;;;;;;;;;4955920;28;20053;-91
2022/06/21 08:26:13;;;;;;;0.20;0.10;;;;;;;;;;4945828;28;20266;-92
2022/06/21 08:28:54;;;;;;;0.20;0.10;;;;;;;;;;4960188;28;20125;-92
2022/06/21 08:31:27;;;;;;;0.73;0.47;;;;;;;;;;4962119;28;20047;-93
2022/06/21 08:34:23;;;;;;;0.20;0.10;;;;;;;;;;4956978;28;20070;-92
2022/06/21 08:36:55;;;;;;;0.20;0.10;;;;;;;;;;4946116;28;20043;-91
2022/06/21 08:39:33;;;;;;;0.20;0.10;;;;;;;;;;4951729;28;20042;-92
2022/06/21 08:42:08;;;;;;;0.20;0.10;;;;;;;;;;4961196;28;20451;-92
2022/06/21 08:48:08;;;;;;;0.20;0.10;;;;;;;;;;4954021;28;20046;-90
2022/06/21 08:50:53;;;;;;;0.20;0.10;;;;;;;;;;4923596;28;20047;-92
2022/06/21 11:08:44;;;;;;;0.20;0.10;;;;;;;;;;6159069;22;1962380;-90
2022/06/21 11:11:28;;;;;;;0.20;0.10;;;;;;;;;;6186775;23;20102;-89
2022/06/21 11:14:03;;;;;;;0.20;0.10;;;;;;;;;;6164528;23;20211;-92
2022/06/21 11:16:36;;;;;;;0.80;0.70;;;;;;;;;;6163964;23;20013;-91
2022/06/21 11:19:08;;;;;;;0.20;0.10;;;;;;;;;;6167633;23;20040;-92
2022/06/21 11:21:51;;;;;;;0.20;0.10;;;;;;;;;;6164148;23;20024;-90
2022/06/21 11:24:20;;;;;;;0.20;0.10;;;;;;;;;;6185309;23;20040;-92
2022/06/21 11:26:50;;;;;;;0.20;0.10;;;;;;;;;;6166301;23;20023;-91
2022/06/21 11:29:37;;;;;;;0.20;0.10;;;;;;;;;;6162551;23;20041;-90
2022/06/21 11:32:19;;;;;;;0.20;0.10;;;;;;;;;;6159209;23;20099;-88
2022/06/21 11:34:51;;;;;;;0.20;0.10;;;;;;;;;;6159044;23;20013;-88
2022/06/21 11:37:24;;;;;;;0.20;0.10;;;;;;;;;;6157751;23;20020;-88
2022/06/21 11:40:23;;;;;;;0.20;0.00;;;;;;;;;;6159889;23;20043;-89
2022/06/21 11:43:15;;;;;;;0.20;0.10;;;;;;;;;;6079304;23;20051;-89
2022/06/21 11:45:58;;;;;;;0.20;0.10;;;;;;;;;;6161272;23;20054;-89
2022/06/21 11:48:42;;;;;;;0.20;0.10;;;;;;;;;;6158008;23;20027;-90
2022/06/21 11:51:11;;;;;;;0.20;0.00;;;;;;;;;;6157694;23;20020;-90
2022/06/21 11:53:40;;;;;;;0.20;0.10;;;;;;;;;;6159419;23;20091;-90
2022/06/21 11:56:25;;;;;;;0.20;0.10;;;;;;;;;;6156660;23;20019;-89
2022/06/21 11:59:24;;;;;;;0.20;0.10;;;;;;;;;;6152562;23;20075;-88
2022/06/21 12:02:11;;;;;;;0.20;0.10;;;;;;;;;;6078291;23;20019;-88
2022/06/21 12:04:46;;;;;;;0.20;0.10;;;;;;;;;;6156990;23;20013;-90
2022/06/21 12:07:19;;;;;;;0.20;0.10;;;;;;;;;;6156331;23;20021;-91
2022/06/21 12:10:05;;;;;;;0.20;0.10;;;;;;;;;;6153025;23;20096;-89
2022/06/21 12:12:44;;;;;;;0.20;0.10;;;;;;;;;;6156977;23;20019;-89
2022/06/21 12:15:20;;;;;;;0.28;0.17;;;;;;;;;;6157231;23;20012;-89
2022/06/21 12:17:54;;;;;;;0.20;0.10;;;;;;;;;;6159565;23;20016;-91
2022/06/21 12:20:24;;;;;;;0.20;0.10;;;;;;;;;;6158812;23;20020;-91
2022/06/21 12:22:56;;;;;;;0.20;0.10;;;;;;;;;;6160722;23;20536;-90
2022/06/21 12:25:23;;;;;;;0.20;0.10;;;;;;;;;;6159371;23;20024;-90
2022/06/21 12:27:51;;;;;;;0.20;0.10;;;;;;;;;;6158452;23;20017;-91
2022/06/21 12:30:38;;;;;;;0.20;0.10;;;;;;;;;;6132790;23;20531;-92
2022/06/21 12:33:05;;;;;;;0.20;0.05;;;;;;;;;;6161172;23;20017;-92
2022/06/21 12:35:51;;;;;;;0.20;0.10;;;;;;;;;;6157971;23;20017;-90
2022/06/21 12:38:26;;;;;;;0.20;0.10;;;;;;;;;;6160637;23;20009;-91
2022/06/21 12:41:11;;;;;;;0.30;0.10;;;;;;;;;;6161307;23;20392;-89
2022/06/21 12:43:44;;;;;;;0.20;0.10;;;;;;;;;;6156330;23;20353;-90
2022/06/21 12:46:29;;;;;;;0.38;0.10;;;;;;;;;;6158686;23;20476;-92
2022/06/21 12:49:15;;;;;;;0.20;0.10;;;;;;;;;;6159939;23;20052;-94
2022/06/21 12:52:31;;;;;;;0.20;0.10;;;;;;;;;;6184679;23;20450;-88
2022/06/21 12:55:16;;;;;;;0.20;0.10;;;;;;;;;;6007576;23;20086;-87
2022/06/21 12:58:01;;;;;;;0.20;0.10;;;;;;;;;;6139742;23;20013;-92
2022/06/21 13:00:40;;;;;;;0.20;0.10;;;;;;;;;;6151357;23;20088;-90
2022/06/21 13:03:06;;;;;;;0.20;0.10;;;;;;;;;;6152564;23;20019;-87
2022/06/21 13:05:32;;;;;;;0.20;0.10;;;;;;;;;;6146505;23;20027;-91
2022/06/21 13:08:13;;;;;;;0.20;0.10;;;;;;;;;;6152716;23;20024;-90
2022/06/21 13:11:04;;;;;;;0.20;0.10;;;;;;;;;;6153442;23;20013;-92
2022/06/21 13:13:49;;;;;;;0.20;0.10;;;;;;;;;;6165694;23;20016;-93
2022/06/21 13:16:34;;;;;;;;;;;;;;;;;;;;;
2022/06/21 13:22:32;;;;;;;0.20;0.10;;;;;;;;;;6177431;23;20024;-92
2022/06/21 13:25:52;;;;;;;0.20;0.10;;;;;;;;;;6160575;23;20012;-91
2022/06/21 13:28:53;;;;;;;0.20;0.10;;;;;;;;;;6171059;23;20056;-90
2022/06/21 13:40:00;;;;;;;0.20;0.10;;;;;;;;;;5915177;24;20025;-92
2022/06/21 13:42:52;;;;;;;0.20;0.10;;;;;;;;;;5922019;24;20051;-90
2022/06/21 13:45:40;;;;;;;0.20;0.10;;;;;;;;;;5920413;23;20368;-91
2022/06/21 13:48:19;;;;;;;0.20;0.10;;;;;;;;;;6007994;23;20019;-93
2022/06/21 13:51:04;;;;;;;0.20;0.05;;;;;;;;;;6085025;23;20020;-91
2022/06/21 13:54:05;;;;;;;0.20;0.10;;;;;;;;;;6119743;23;20088;-91
2022/06/21 13:56:41;;;;;;;0.20;0.00;;;;;;;;;;6011133;23;20039;-91
2022/06/21 13:59:17;;;;;;;0.20;0.10;;;;;;;;;;6137281;23;20087;-91
2022/06/21 14:01:58;;;;;;;0.20;0.10;;;;;;;;;;6149163;23;20016;-92
2022/06/21 14:04:45;;;;;;;0.20;0.10;;;;;;;;;;6150899;23;20454;-90
2022/06/21 14:07:20;;;;;;;0.20;0.10;;;;;;;;;;6150173;23;20019;-92
2022/06/21 14:09:54;;;;;;;0.20;0.10;;;;;;;;;;6148632;23;20287;-92
2022/06/21 14:12:27;;;;;;;0.20;0.10;;;;;;;;;;6150247;23;20419;-91
2022/06/21 14:14:53;;;;;;;;;;;;;;;;;;6152475;23;20024;-92
2022/06/21 14:17:22;;;;;;;0.20;0.10;;;;;;;;;;6153737;23;20329;-91
2022/06/21 14:19:48;;;;;;;0.20;0.10;;;;;;;;;;6148662;23;20193;-91
2022/06/21 14:22:22;;;;;;;0.43;0.15;;;;;;;;;;6149287;23;20008;-92
2022/06/21 14:24:57;;;;;;;0.20;0.10;;;;;;;;;;6146015;23;20450;-91
2022/06/21 14:27:33;;;;;;;0.20;0.10;;;;;;;;;;6150119;23;20021;-92
2022/06/21 14:30:09;;;;;;;0.20;0.10;;;;;;;;;;6157178;23;20013;-92
2022/06/21 14:32:35;;;;;;;0.20;0.10;;;;;;;;;;6155659;23;20016;-92
2022/06/21 14:35:20;;;;;;;0.20;0.10;;;;;;;;;;6155982;23;20446;-92
2022/06/21 14:38:04;;;;;;;0.20;0.10;;;;;;;;;;6153375;23;20016;-91
2022/06/21 14:40:48;;;;;;;0.20;0.10;;;;;;;;;;6148871;23;20015;-90
2022/06/21 14:43:25;;;;;;;0.20;0.10;;;;;;;;;;6151476;23;20012;-91
2022/06/21 14:46:23;;;;;;;0.20;0.03;;;;;;;;;;6147608;23;20458;-91
2022/06/21 14:49:08;;;;;;;0.20;0.10;;;;;;;;;;6094203;23;20016;-91
2022/06/21 14:51:44;;;;;;;0.20;0.03;;;;;;;;;;6151217;23;20020;-92
2022/06/21 14:54:21;;;;;;;0.20;0.10;;;;;;;;;;6150834;23;20111;-91
2022/06/21 14:57:05;;;;;;;0.20;0.10;;;;;;;;;;6151326;23;20476;-91
2022/06/21 14:59:43;;;;;;;0.20;0.10;;;;;;;;;;6150639;23;20075;-91
2022/06/21 15:02:32;;;;;;;0.20;0.10;;;;;;;;;;6158972;23;20012;-92
2022/06/21 15:05:06;;;;;;;0.20;0.10;;;;;;;;;;6154799;23;20454;-92
2022/06/21 15:07:37;;;;;;;0.20;0.10;;;;;;;;;;6149804;23;20017;-92
2022/06/21 15:10:17;;;;;;;0.20;0.10;;;;;;;;;;6151640;23;20483;-91
2022/06/21 15:13:04;;;;;;;0.20;0.10;;;;;;;;;;6148403;23;20253;-90
2022/06/21 15:15:33;;;;;;;0.20;0.10;;;;;;;;;;6148717;23;20020;-91
2022/06/21 15:18:05;;;;;;;0.20;0.10;;;;;;;;;;6149140;23;20017;-92
2022/06/21 15:20:49;;;;;;;0.20;0.10;;;;;;;;;;6146787;23;20468;-91
2022/06/21 15:23:23;;;;;;;0.20;0.10;;;;;;;;;;6148860;23;20008;-91
2022/06/21 15:25:55;;;;;;;0.20;0.10;;;;;;;;;;6143865;23;20484;-89
2022/06/21 15:28:30;;;;;;;0.20;0.10;;;;;;;;;;6171739;23;20028;-89
2022/06/21 15:30:56;;;;;;;0.20;0.10;;;;;;;;;;6150022;23;20503;-91
2022/06/21 15:33:29;;;;;;;0.20;0.10;;;;;;;;;;6146320;23;20279;-89
2022/06/21 15:36:31;;;;;;;;;;;;;;;;;;;;;
2022/06/21 15:39:16;;;;;;;0.20;0.10;;;;;;;;;;6180045;23;20049;-89
2022/06/21 15:42:03;;;;;;;0.20;0.10;;;;;;;;;;6146393;23;20020;-91
2022/06/21 15:44:42;;;;;;;0.20;0.10;;;;;;;;;;6145009;23;20453;-89
2022/06/21 15:50:21;;;;;;;0.20;0.10;;;;;;;;;;6167961;23;20607;-90
2022/06/21 15:52:56;;;;;;;0.20;0.10;;;;;;;;;;6150551;23;20202;-89
2022/06/21 15:56:03;;;;;;;0.20;0.10;;;;;;;;;;6149573;23;20223;-91
2022/06/21 15:58:50;;;;;;;0.20;0.10;;;;;;;;;;6144204;23;20021;-90
2022/06/21 16:01:39;;;;;;;0.20;0.10;;;;;;;;;;6142236;23;20556;-91
2022/06/21 16:04:16;;;;;;;0.35;0.25;;;;;;;;;;6151745;23;20049;-90
2022/06/21 16:06:53;;;;;;;0.20;0.20;;;;;;;;;;6147016;23;20016;-89
2022/06/21 16:09:20;;;;;;;0.20;0.10;;;;;;;;;;6151994;23;20075;-87
2022/06/21 16:12:06;;;;;;;0.20;0.10;;;;;;;;;;6150213;23;20052;-91
2022/06/21 16:14:33;;;;;;;0.20;0.10;;;;;;;;;;6151886;23;20020;-90
2022/06/21 16:17:08;;;;;;;0.20;0.10;;;;;;;;;;6142046;23;20499;-89
2022/06/21 16:19:35;;;;;;;0.20;0.10;;;;;;;;;;6146606;23;20089;-90
2022/06/21 16:22:02;;;;;;;0.20;0.10;;;;;;;;;;6148113;23;20100;-89
2022/06/21 16:24:38;;;;;;;0.20;0.10;;;;;;;;;;6170333;23;20013;-88
2022/06/21 16:27:11;;;;;;;0.20;0.10;;;;;;;;;;6143651;23;20020;-90
2022/06/21 16:29:43;;;;;;;0.20;0.10;;;;;;;;;;6148328;23;20016;-91
2022/06/21 16:35:09;;;;;;;0.20;0.10;;;;;;;;;;6179909;23;20290;-90
2022/06/21 16:37:57;;;;;;;0.20;0.10;;;;;;;;;;6152353;23;20527;-91
2022/06/21 16:43:17;;;;;;;0.57;0.57;;;;;;;;;;6167715;23;20098;-90
2022/06/21 16:45:46;;;;;;;0.30;0.30;;;;;;;;;;6151625;23;20725;-90
2022/06/21 16:48:35;;;;;;;0.20;0.10;;;;;;;;;;6151675;23;20028;-89
2022/06/21 16:51:28;;;;;;;0.20;0.10;;;;;;;;;;6154563;23;20050;-89
2022/06/21 16:53:58;;;;;;;0.20;0.10;;;;;;;;;;6146046;23;20091;-88
2022/06/21 16:56:29;;;;;;;0.20;0.10;;;;;;;;;;6149469;23;20567;-89
2022/06/21 16:59:07;;;;;;;0.20;0.10;;;;;;;;;;6174806;23;20051;-89
2022/06/21 17:01:40;;;;;;;0.20;0.10;;;;;;;;;;6145764;23;20066;-91
2022/06/21 17:04:13;;;;;;;0.30;0.30;;;;;;;;;;6144437;23;20026;-87
2022/06/21 17:06:40;;;;;;;0.20;0.10;;;;;;;;;;6170146;23;20016;-90
2022/06/21 17:09:26;;;;;;;0.20;0.10;;;;;;;;;;6140213;23;20013;-90
2022/06/21 17:12:03;;;;;;;;;;;;;;;;;;;;;
2022/06/21 17:14:51;;;;;;;0.30;0.17;;;;;;;;;;6171985;23;20280;-88
2022/06/21 17:17:20;;;;;;;1.02;0.45;;;;;;;;;;6171389;23;20009;-90
2022/06/21 17:19:55;;;;;;;0.20;0.10;;;;;;;;;;6143931;23;20012;-90
2022/06/21 17:22:37;;;;;;;0.20;0.10;;;;;;;;;;6147420;23;20582;-90
2022/06/21 17:25:05;;;;;;;0.20;0.10;;;;;;;;;;6151133;23;20020;-87
2022/06/21 17:27:50;;;;;;;0.20;0.13;;;;;;;;;;6145486;23;20464;-91
2022/06/21 17:30:21;;;;;;;0.30;0.30;;;;;;;;;;6149134;23;20048;-91
2022/06/21 17:32:55;;;;;;;0.20;0.10;;;;;;;;;;6149717;23;20043;-89
2022/06/21 17:35:27;;;;;;;0.20;0.10;;;;;;;;;;6151781;23;20020;-88
2022/06/21 17:38:03;;;;;;;0.20;0.10;;;;;;;;;;6147630;23;20744;-91
2022/06/21 17:40:29;;;;;;;0.30;0.20;;;;;;;;;;6150638;23;20013;-91
2022/06/21 17:43:02;;;;;;;0.63;0.40;;;;;;;;;;6152178;23;20044;-92
2022/06/21 17:45:53;;;;;;;0.35;0.10;;;;;;;;;;6152100;23;20043;-88
2022/06/21 17:48:41;;;;;;;0.20;0.20;;;;;;;;;;6155238;23;20091;-91
2022/06/21 17:51:36;;;;;;;0.20;0.10;;;;;;;;;;6155478;23;20532;-91
2022/06/21 17:54:46;;;;;;;0.38;0.35;;;12.10;99.90;;;;;;6156710;23;20447;-90
2022/06/21 17:57:16;;;;;;;0.43;0.43;;;;;;;;;;6156935;23;20008;-91
2022/06/21 17:59:45;;;;;;;3.00;0.77;;;;;;;;;;6160003;23;20023;-89
2022/06/21 18:02:20;;;;;;;0.20;0.20;;;;;;;;;;6156781;23;20477;-92
2022/06/21 18:04:51;;;;;;;0.20;0.10;;;;;;;;;;6152630;23;20020;-90
2022/06/21 18:07:28;;;;;;;0.20;0.10;;;;;;;;;;6150897;23;20016;-90
2022/06/21 18:10:29;;;;;;;0.20;0.10;;;;;;;;;;6152605;23;20100;-90
2022/06/21 18:13:14;;;;;;;0.20;0.10;;;;;;;;;;6149527;23;20019;-90
2022/06/21 18:22:26;;;;;;;0.28;0.20;;;;;;;;;;6177570;23;20513;-90
2022/06/21 20:11:07;;;;;;;0.20;0.10;;;;;;;;;;6140899;23;20475;-88
2022/06/21 20:13:52;;;;;;;0.22;0.15;;;;;;;;;;6094595;23;20193;-90
2022/06/21 20:16:24;;;;;;;0.20;0.10;;;;;;;;;;6097000;23;20014;-90
2022/06/21 20:19:09;;;;;;;0.20;0.10;;;;;;;;;;6096225;23;20017;-88
2022/06/21 20:21:45;;;;;;;0.20;0.10;;;;;;;;;;6097794;23;20017;-90
2022/06/21 20:24:26;;;;;;;0.20;0.10;;;;;;;;;;6097041;23;20185;-87
2022/06/21 20:27:08;;;;;;;0.60;0.60;;;;;;;;;;6098088;23;20023;-89
2022/06/21 20:29:42;;;;;;;0.20;0.10;;;;;;;;;;6098590;23;20550;-89
2022/06/21 20:32:12;;;;;;;0.20;0.10;;;;;;;;;;6097793;23;20052;-87
2022/06/21 20:35:09;;;;;;;0.20;0.10;;;;;;;;;;6097082;23;20023;-88
2022/06/21 20:37:48;;;;;;;0.20;0.20;;;;;;;;;;6068027;23;20056;-88
2022/06/21 20:40:33;;;;;;;0.20;0.10;;;;;;;;;;6094663;23;20013;-87
2022/06/21 20:43:13;;;;;;;0.20;0.10;;;;;;;;;;6093960;23;20051;-88
2022/06/21 20:45:47;;;;;;;0.20;0.17;;;;;;;;;;6095014;23;20021;-89
2022/06/21 20:48:34;;;;;;;0.20;0.10;;;;;;;;;;6094836;23;20103;-88
2022/06/21 20:51:18;;;;;;;0.20;0.10;;;;;;;;;;6092331;23;20406;-89
2022/06/21 20:56:20;;;;;;;0.20;0.10;;;;;;;;;;6177035;23;20087;-87
2022/06/21 20:58:48;;;;;;;0.20;0.10;;;;;;;;;;6154119;23;20287;-86
2022/06/21 21:01:16;;;;;;;0.20;0.10;;;;;;;;;;6150546;23;20013;-88
2022/06/21 21:03:47;;;;;;;0.20;0.10;;;;;;;;;;6150912;23;20021;-88
2022/06/21 21:06:17;;;;;;;0.20;0.10;;;;;;;;;;6150828;23;20123;-88
2022/06/21 21:08:45;;;;;;;0.20;0.10;;;;;;;;;;6150424;23;20017;-85
2022/06/21 21:11:14;;;;;;;0.20;0.10;;;;;;;;;;6150059;23;20475;-87
2022/06/21 21:13:48;;;;;;;0.20;0.10;;;;;;;;;;6150876;23;20017;-88
2022/06/21 21:16:36;;;;;;;0.20;0.10;;;;;;;;;;6150827;23;20009;-89
2022/06/21 21:19:02;;;;;;;0.20;0.10;;;;;;;;;;6151040;23;20669;-87
2022/06/21 21:21:36;;;;;;;0.20;0.10;;;;;;;;;;6150868;23;20466;-90
2022/06/21 21:24:08;;;;;;;0.20;0.10;;;;;;;;;;6153657;23;20430;-87
2022/06/21 21:26:35;;;;;;;0.20;0.10;;;;;;;;;;6151979;23;20207;-88
2022/06/21 21:29:02;;;;;;;0.20;0.10;;;;;;;;;;6151358;23;20013;-86
2022/06/21 21:31:57;;;;;;;0.20;0.10;;;;;;;;;;6127756;23;20028;-86